createdAt,value
2018-08-24T00:00:23.527Z,1070.59
2018-08-24T00:01:23.532Z,1070.33
2018-08-24T00:02:23.536Z,1070.41
2018-08-24T00:03:23.542Z,1070.46
2018-08-24T00:04:23.528Z,1070.26
2018-08-24T00:05:23.540Z,1070.1
2018-08-24T00:06:23.529Z,1070.04
2018-08-24T00:07:23.615Z,1069.77
2018-08-24T00:08:23.556Z,1069.83
2018-08-24T00:09:23.548Z,1069.48
2018-08-24T00:10:23.533Z,1069.55
2018-08-24T00:11:23.539Z,1069.52
2018-08-24T00:12:23.530Z,1069.65
2018-08-24T00:13:23.548Z,1069.81
2018-08-24T00:14:23.547Z,1070.36
2018-08-24T00:15:23.558Z,1071.05
2018-08-24T00:16:23.540Z,1071.7
2018-08-24T00:17:23.539Z,1072.11
2018-08-24T00:18:23.547Z,1072.67
2018-08-24T00:19:23.555Z,1072.76
2018-08-24T00:20:23.561Z,1073.17
2018-08-24T00:21:23.557Z,1073.32
2018-08-24T00:22:23.566Z,1073.59
2018-08-24T00:23:23.568Z,1073.98
2018-08-24T00:24:23.563Z,1074.16
2018-08-24T00:25:23.559Z,1074.61
2018-08-24T00:26:23.557Z,1074.86
2018-08-24T00:27:23.568Z,1075.18
2018-08-24T00:28:23.566Z,1075.54
2018-08-24T00:29:23.592Z,1075.78
2018-08-24T00:30:23.563Z,1076.01
2018-08-24T00:31:23.597Z,1076.12
2018-08-24T00:32:23.571Z,1076.4
2018-08-24T00:33:23.599Z,1076.4
2018-08-24T00:34:23.582Z,1076.45
2018-08-24T00:35:23.590Z,1076.62
2018-08-24T00:36:23.585Z,1076.74
2018-08-24T00:37:23.572Z,1076.91
2018-08-24T00:38:23.607Z,1077.31
2018-08-24T00:39:23.575Z,1077.15
2018-08-24T00:40:23.593Z,1077.64
2018-08-24T00:41:23.592Z,1078.03
2018-08-24T00:42:23.609Z,1078.27
2018-08-24T00:43:23.596Z,1078.76
2018-08-24T00:44:23.607Z,1079.12
2018-08-24T00:45:23.593Z,1079.39
2018-08-24T00:46:23.597Z,1079.88
2018-08-24T00:48:42.728Z,1080.76
2018-08-24T00:49:42.748Z,1081.04
2018-08-24T00:50:42.703Z,1081.56
2018-08-24T00:55:11.817Z,1083.94
2018-08-24T00:56:11.807Z,1084.36
2018-08-24T00:57:11.788Z,1084.73
2018-08-24T00:58:11.825Z,1085.14
2018-08-24T00:59:11.809Z,1085.34
2018-08-24T01:00:11.816Z,1085.42
2018-08-24T01:01:11.824Z,1085.69
2018-08-24T01:02:11.823Z,1085.83
2018-08-24T01:03:11.824Z,1086.05
2018-08-24T01:04:11.841Z,1086.01
2018-08-24T01:05:11.806Z,1086.1
2018-08-24T01:06:11.819Z,1086.22
2018-08-24T01:07:11.821Z,1086.37
2018-08-24T01:08:11.811Z,1086.32
2018-08-24T01:09:11.818Z,1086.48
2018-08-24T01:10:11.869Z,1086.39
2018-08-24T01:11:11.843Z,1086.52
2018-08-24T01:12:11.839Z,1086.32
2018-08-24T01:13:11.846Z,1086.43
2018-08-24T01:14:11.838Z,1086.37
2018-08-24T01:15:11.836Z,1086.44
2018-08-24T01:16:11.831Z,1086.45
2018-08-24T01:17:11.844Z,1086.49
2018-08-24T01:18:11.830Z,1086.39
2018-08-24T01:19:11.850Z,1086.43
2018-08-24T01:20:11.835Z,1086.26
2018-08-24T01:21:11.834Z,1086.09
2018-08-24T01:22:11.841Z,1086.06
2018-08-24T01:23:11.863Z,1086.07
2018-08-24T01:24:11.848Z,1085.97
2018-08-24T01:25:11.865Z,1085.99
2018-08-24T01:26:11.859Z,1086.17
2018-08-24T01:27:11.841Z,1086.6
2018-08-24T01:28:11.877Z,1086.78
2018-08-24T01:29:11.857Z,1086.86
2018-08-24T01:30:11.849Z,1086.88
2018-08-24T01:31:11.867Z,1086.87
2018-08-24T01:32:11.863Z,1086.99
2018-08-24T01:33:11.882Z,1086.98
2018-08-24T01:34:11.880Z,1087.15
2018-08-24T01:35:11.860Z,1087.13
2018-08-24T01:36:11.872Z,1087.26
2018-08-24T01:37:11.874Z,1087.42
2018-08-24T01:38:11.888Z,1087.46
2018-08-24T01:39:11.886Z,1087.73
2018-08-24T01:40:11.873Z,1087.94
2018-08-24T01:41:11.892Z,1088.34
2018-08-24T01:42:11.883Z,1088.47
2018-08-24T01:43:11.887Z,1088.54
2018-08-24T01:44:11.883Z,1088.76
2018-08-24T01:45:11.884Z,1089.07
2018-08-24T01:46:11.894Z,1089.16
2018-08-24T01:47:11.911Z,1089.33
2018-08-24T01:48:11.899Z,1089.4
2018-08-24T01:49:11.885Z,1089.28
2018-08-24T01:50:11.915Z,1089.17
2018-08-24T01:51:11.905Z,1089.13
2018-08-24T01:52:11.892Z,1089.18
2018-08-24T01:53:11.903Z,1089.03
2018-08-24T01:54:11.905Z,1088.85
2018-08-24T01:55:11.909Z,1088.72
2018-08-24T01:56:11.895Z,1088.91
2018-08-24T01:57:11.910Z,1088.9
2018-08-24T01:58:11.896Z,1089.2
2018-08-24T01:59:12.022Z,1089.17
2018-08-24T02:00:11.913Z,1089.18
2018-08-24T02:01:11.924Z,1089.27
2018-08-24T02:02:11.923Z,1089.09
2018-08-24T02:03:11.907Z,1089.02
2018-08-24T02:04:11.924Z,1089.01
2018-08-24T02:05:11.918Z,1088.94
2018-08-24T02:06:11.926Z,1088.8
2018-08-24T02:07:11.921Z,1088.6
2018-08-24T02:08:11.925Z,1088.45
2018-08-24T02:09:11.939Z,1088.25
2018-08-24T02:10:11.939Z,1087.95
2018-08-24T02:11:11.921Z,1087.72
2018-08-24T02:12:11.923Z,1087.32
2018-08-24T02:13:11.931Z,1087.41
2018-08-24T02:14:11.935Z,1087.11
2018-08-24T02:20:51.465Z,1087.31
2018-08-24T02:21:51.476Z,1087.26
2018-08-24T02:22:51.458Z,1087.23
2018-08-24T02:23:51.459Z,1087.15
2018-08-24T02:24:51.466Z,1087.2
2018-08-24T02:25:51.471Z,1087.2
2018-08-24T02:26:51.468Z,1087.23
2018-08-24T02:27:51.479Z,1087.53
2018-08-24T02:28:51.465Z,1087.82
2018-08-24T02:29:51.488Z,1088.33
2018-08-24T02:30:51.477Z,1088.51
2018-08-24T02:31:51.476Z,1088.96
2018-08-24T02:32:51.473Z,1089.19
2018-08-24T02:33:51.479Z,1089.54
2018-08-24T02:34:51.483Z,1089.69
2018-08-24T02:35:51.476Z,1090.02
2018-08-24T02:36:51.465Z,1090.19
2018-08-24T02:37:51.486Z,1090.15
2018-08-24T02:38:51.475Z,1090.23
2018-08-24T02:39:51.493Z,1090.3
2018-08-24T02:40:51.492Z,1090.27
2018-08-24T02:41:51.494Z,1090.34
2018-08-24T02:42:51.511Z,1090.31
2018-08-24T02:43:51.524Z,1090.31
2018-08-24T02:44:51.487Z,1090.3
2018-08-24T02:45:51.487Z,1090.26
2018-08-24T02:46:51.501Z,1090.27
2018-08-24T02:47:51.502Z,1090.28
2018-08-24T02:48:51.505Z,1090.31
2018-08-24T02:49:51.499Z,1090.44
2018-08-24T02:50:51.507Z,1090.66
2018-08-24T02:51:51.514Z,1090.9
2018-08-24T02:52:51.514Z,1091.07
2018-08-24T02:53:51.507Z,1091.08
2018-08-24T02:54:51.522Z,1091.03
2018-08-24T02:55:51.517Z,1090.96
2018-08-24T02:56:51.510Z,1091.02
2018-08-24T02:57:51.500Z,1091.04
2018-08-24T02:58:51.524Z,1091.32
2018-08-24T02:59:51.511Z,1091.42
2018-08-24T03:10:52.952Z,1093.01
2018-08-24T03:11:53.011Z,1093.18
2018-08-24T03:12:52.948Z,1093.62
2018-08-24T03:13:52.936Z,1094.06
2018-08-24T03:14:52.959Z,1094.4
2018-08-24T03:15:52.962Z,1094.68
2018-08-24T03:16:52.937Z,1095.02
2018-08-24T03:17:52.967Z,1095.58
2018-08-24T03:18:52.936Z,1095.86
2018-08-24T03:19:52.956Z,1096.4
2018-08-24T03:20:52.948Z,1096.52
2018-08-24T03:21:52.962Z,1096.95
2018-08-24T03:22:52.954Z,1097.23
2018-08-24T03:23:52.980Z,1097.35
2018-08-24T03:30:32.599Z,1097.76
2018-08-24T03:31:32.576Z,1097.79
2018-08-24T03:32:32.589Z,1097.77
2018-08-24T03:33:32.599Z,1098.09
2018-08-24T03:34:32.599Z,1098.36
2018-08-24T03:35:32.598Z,1098.68
2018-08-24T03:36:32.603Z,1098.78
2018-08-24T03:37:32.619Z,1098.89
2018-08-24T03:38:32.591Z,1099.13
2018-08-24T03:39:32.590Z,1099.27
2018-08-24T03:40:32.614Z,1099.46
2018-08-24T03:41:32.620Z,1099.71
2018-08-24T03:42:32.607Z,1099.86
2018-08-24T03:43:32.611Z,1100.1
2018-08-24T03:44:32.595Z,1100.39
2018-08-24T03:45:32.602Z,1100.58
2018-08-24T03:46:32.607Z,1100.86
2018-08-24T03:47:32.608Z,1100.95
2018-08-24T03:48:32.610Z,1101.07
2018-08-24T03:49:32.621Z,1101.24
2018-08-24T03:50:32.659Z,1101.28
2018-08-24T03:51:32.606Z,1101.29
2018-08-24T03:52:32.613Z,1101.41
2018-08-24T03:53:32.649Z,1101.68
2018-08-24T03:54:32.625Z,1101.93
2018-08-24T03:55:32.621Z,1102.16
2018-08-24T03:56:32.630Z,1102.63
2018-08-24T03:57:32.638Z,1103.18
2018-08-24T03:58:32.630Z,1103.54
2018-08-24T03:59:32.661Z,1104.05
2018-08-24T04:00:32.637Z,1104.51
2018-08-24T04:01:32.689Z,1105
2018-08-24T04:02:32.632Z,1105.35
2018-08-24T04:03:32.640Z,1105.99
2018-08-24T04:04:32.752Z,1106.52
2018-08-24T04:05:32.656Z,1106.88
2018-08-24T04:06:32.659Z,1107.27
2018-08-24T04:07:32.640Z,1107.6
2018-08-24T04:08:32.649Z,1107.74
2018-08-24T04:09:32.645Z,1107.85
2018-08-24T04:10:32.652Z,1107.92
2018-08-24T04:11:32.660Z,1108.01
2018-08-24T04:12:32.636Z,1108.14
2018-08-24T04:13:32.667Z,1108.19
2018-08-24T04:14:32.693Z,1108.12
2018-08-24T04:15:32.652Z,1108.03
2018-08-24T04:16:32.656Z,1108.07
2018-08-24T04:21:03.686Z,1108.35
2018-08-24T04:22:03.647Z,1108.4
2018-08-24T04:23:03.649Z,1108.66
2018-08-24T04:24:03.679Z,1108.72
2018-08-24T04:25:03.670Z,1108.99
2018-08-24T04:26:03.727Z,1109.05
2018-08-24T04:27:03.657Z,1109.31
2018-08-24T04:28:03.656Z,1109.45
2018-08-24T04:29:03.666Z,1109.65
2018-08-24T04:30:03.676Z,1109.9
2018-08-24T04:31:03.672Z,1110.08
2018-08-24T04:32:03.679Z,1110.28
2018-08-24T04:33:03.686Z,1110.48
2018-08-24T04:34:03.698Z,1110.76
2018-08-24T04:35:03.765Z,1110.84
2018-08-24T04:36:03.680Z,1111
2018-08-24T04:37:03.691Z,1111.08
2018-08-24T04:38:03.683Z,1111.2
2018-08-24T04:39:03.686Z,1111.23
2018-08-24T04:40:03.697Z,1111.23
2018-08-24T04:41:03.699Z,1111.26
2018-08-24T04:42:03.684Z,1111.29
2018-08-24T04:43:03.685Z,1111.25
2018-08-24T04:44:03.723Z,1111.22
2018-08-24T04:45:03.711Z,1111.2
2018-08-24T04:46:03.706Z,1111.18
2018-08-24T04:47:03.712Z,1111.1
2018-08-24T04:48:03.692Z,1111.09
2018-08-24T04:49:03.707Z,1111.12
2018-08-24T04:50:04.079Z,1111.07
2018-08-24T04:51:03.707Z,1111.04
2018-08-24T04:52:03.705Z,1110.95
2018-08-24T04:53:03.709Z,1110.93
2018-08-24T04:54:03.716Z,1110.76
2018-08-24T04:55:03.704Z,1110.72
2018-08-24T04:56:03.735Z,1110.47
2018-08-24T04:57:03.744Z,1110.41
2018-08-24T04:58:03.713Z,1110.19
2018-08-24T05:00:23.155Z,1109.62
2018-08-24T05:01:23.159Z,1109.38
2018-08-24T05:02:23.161Z,1109.25
2018-08-24T05:03:23.174Z,1109.06
2018-08-24T05:04:23.132Z,1109.09
2018-08-24T05:05:23.143Z,1108.99
2018-08-24T05:06:23.155Z,1108.87
2018-08-24T05:07:23.152Z,1108.73
2018-08-24T05:08:23.182Z,1108.6
2018-08-24T05:09:23.175Z,1108.43
2018-08-24T05:10:23.153Z,1108.32
2018-08-24T05:11:23.189Z,1108.17
2018-08-24T05:12:23.172Z,1108.11
2018-08-24T05:13:23.159Z,1108.12
2018-08-24T05:14:23.164Z,1107.87
2018-08-24T05:15:23.180Z,1107.87
2018-08-24T05:16:23.189Z,1107.76
2018-08-24T05:17:23.189Z,1107.59
2018-08-24T05:18:23.167Z,1107.52
2018-08-24T05:19:23.204Z,1107.33
2018-08-24T05:20:23.167Z,1107.25
2018-08-24T05:21:23.186Z,1107.09
2018-08-24T05:22:23.181Z,1106.99
2018-08-24T05:23:23.177Z,1107.14
2018-08-24T05:24:23.237Z,1107.1
2018-08-24T05:25:23.204Z,1107.13
2018-08-24T05:26:28.417Z,1106.97
2018-08-24T05:27:23.181Z,1107.08
2018-08-24T05:28:23.186Z,1106.89
2018-08-24T05:29:28.593Z,1106.78
2018-08-24T05:30:23.202Z,1106.75
2018-08-24T05:31:23.204Z,1106.51
2018-08-24T05:32:23.202Z,1106.44
2018-08-24T05:33:23.194Z,1106.16
2018-08-24T05:34:23.197Z,1106.06
2018-08-24T05:35:23.207Z,1105.89
2018-08-24T05:36:23.203Z,1105.7
2018-08-24T05:37:23.218Z,1105.57
2018-08-24T05:38:23.216Z,1105.33
2018-08-24T05:39:23.226Z,1105.04
2018-08-24T05:40:23.212Z,1104.68
2018-08-24T05:41:23.233Z,1104.14
2018-08-24T05:42:23.215Z,1103.59
2018-08-24T05:43:23.227Z,1103.12
2018-08-24T05:44:23.232Z,1102.53
2018-08-24T05:45:23.237Z,1101.76
2018-08-24T05:46:23.219Z,1100.97
2018-08-24T05:47:23.246Z,1100.19
2018-08-24T05:48:23.225Z,1098.58
2018-08-24T05:49:23.228Z,1097.42
2018-08-24T05:50:23.249Z,1097.19
2018-08-24T05:51:23.254Z,1096.72
2018-08-24T05:52:23.243Z,1096.41
2018-08-24T05:53:23.226Z,1095.87
2018-08-24T05:54:23.228Z,1095.56
2018-08-24T05:55:23.244Z,1094.88
2018-08-24T05:56:23.269Z,1092.3
2018-08-24T05:57:23.307Z,1090.45
2018-08-24T06:01:52.700Z,1076.15
2018-08-24T06:02:52.699Z,1072.72
2018-08-24T06:03:52.682Z,1067.7
2018-08-24T06:04:52.689Z,1060.2
2018-08-24T06:05:52.727Z,1053.83
2018-08-24T06:06:52.700Z,1049.07
2018-08-24T06:07:52.709Z,1046.53
2018-08-24T06:08:52.705Z,1049.94
2018-08-24T06:09:52.704Z,1046.94
2018-08-24T06:10:52.680Z,1037.53
2018-08-24T06:11:52.718Z,1029.79
2018-08-24T06:12:52.695Z,1024.19
2018-08-24T06:13:52.699Z,1019.78
2018-08-24T06:14:52.721Z,1017.64
2018-08-24T06:15:52.749Z,1015.45
2018-08-24T06:16:52.731Z,1012.63
2018-08-24T06:17:52.723Z,1010.12
2018-08-24T06:18:52.712Z,1006.92
2018-08-24T06:19:52.720Z,1003.3
2018-08-24T06:20:52.720Z,999.21
2018-08-24T06:21:52.719Z,996.17
2018-08-24T06:22:52.727Z,993.17
2018-08-24T06:23:52.733Z,991
2018-08-24T06:24:52.735Z,989.58
2018-08-24T06:25:52.721Z,987.22
2018-08-24T06:26:52.725Z,984.55
2018-08-24T06:27:52.727Z,983.21
2018-08-24T06:28:52.732Z,982.51
2018-08-24T06:29:52.733Z,981.73
2018-08-24T06:30:52.741Z,982.6
2018-08-24T06:31:52.752Z,983.6
2018-08-24T06:32:52.739Z,986.67
2018-08-24T06:33:52.737Z,991.75
2018-08-24T06:34:52.734Z,996.13
2018-08-24T06:35:52.749Z,1000.34
2018-08-24T06:36:52.768Z,1004.31
2018-08-24T06:37:52.762Z,1008.28
2018-08-24T06:38:52.745Z,1012.1
2018-08-24T06:39:52.775Z,1016
2018-08-24T06:40:52.741Z,1019.66
2018-08-24T06:41:52.820Z,1023.31
2018-08-24T06:42:52.767Z,1026.43
2018-08-24T06:43:52.767Z,1029.21
2018-08-24T06:44:52.769Z,1032.08
2018-08-24T06:45:52.748Z,1033.88
2018-08-24T06:46:52.772Z,1034.9
2018-08-24T06:47:52.781Z,1035.31
2018-08-24T06:48:52.768Z,1036
2018-08-24T06:49:52.766Z,1037.33
2018-08-24T06:50:52.786Z,1038.87
2018-08-24T06:51:52.771Z,1039.95
2018-08-24T06:52:52.821Z,1039.93
2018-08-24T06:53:52.860Z,1038.55
2018-08-24T06:54:52.765Z,1036.93
2018-08-24T06:55:52.768Z,1035.58
2018-08-24T06:56:52.788Z,1034.39
2018-08-24T06:57:52.780Z,1032.46
2018-08-24T06:58:52.786Z,1031.15
2018-08-24T07:01:12.199Z,1028.01
2018-08-24T07:02:12.170Z,1028.4
2018-08-24T07:03:12.144Z,1029.45
2018-08-24T07:04:12.138Z,1030.11
2018-08-24T07:05:12.146Z,1030.61
2018-08-24T07:06:12.152Z,1031.33
2018-08-24T07:07:12.225Z,1031.92
2018-08-24T07:08:12.176Z,1031.07
2018-08-24T07:09:12.175Z,1029.5
2018-08-24T07:10:12.150Z,1028.86
2018-08-24T07:11:12.183Z,1029.52
2018-08-24T07:12:12.156Z,1029.2
2018-08-24T07:13:12.164Z,1027.66
2018-08-24T07:14:12.163Z,1028.23
2018-08-24T07:15:12.177Z,1029.46
2018-08-24T07:16:12.211Z,1031.13
2018-08-24T07:17:12.217Z,1033.16
2018-08-24T07:18:12.164Z,1034.29
2018-08-24T07:19:12.197Z,1033.94
2018-08-24T07:20:12.179Z,1032.98
2018-08-24T07:21:12.182Z,1033.32
2018-08-24T07:22:12.183Z,1034.07
2018-08-24T07:23:12.186Z,1035.45
2018-08-24T07:24:12.197Z,1036.65
2018-08-24T07:25:12.198Z,1037.94
2018-08-24T07:26:12.187Z,1039.57
2018-08-24T07:27:12.205Z,1040.63
2018-08-24T07:28:12.192Z,1041.79
2018-08-24T07:29:12.206Z,1042.91
2018-08-24T07:30:12.206Z,1043.88
2018-08-24T07:31:12.214Z,1044.94
2018-08-24T07:32:12.218Z,1046.17
2018-08-24T07:33:12.202Z,1044.65
2018-08-24T07:34:12.201Z,1043.17
2018-08-24T07:35:12.213Z,1039.23
2018-08-24T07:36:12.248Z,1036.59
2018-08-24T07:37:12.225Z,1034.43
2018-08-24T07:38:12.226Z,1031.12
2018-08-24T07:39:12.361Z,1027.66
2018-08-24T07:40:12.218Z,1023.75
2018-08-24T07:41:12.283Z,1019.42
2018-08-24T07:42:12.229Z,1017.08
2018-08-24T07:43:12.219Z,1017
2018-08-24T07:44:12.229Z,1016.23
2018-08-24T07:45:12.264Z,1012.97
2018-08-24T07:46:12.220Z,1008.41
2018-08-24T07:47:12.249Z,1007.41
2018-08-24T07:48:12.267Z,1007.28
2018-08-24T07:49:12.223Z,1006.58
2018-08-24T07:50:12.267Z,1005.27
2018-08-24T07:51:12.257Z,1004.83
2018-08-24T07:52:12.225Z,1003.81
2018-08-24T07:53:12.245Z,1000.75
2018-08-24T07:54:12.270Z,996.34
2018-08-24T07:55:12.397Z,992.32
2018-08-24T07:56:12.250Z,992.77
2018-08-24T07:57:12.269Z,993.35
2018-08-24T07:58:12.257Z,994.82
2018-08-24T07:59:12.284Z,996.93
2018-08-24T08:00:12.260Z,998.27
2018-08-24T08:01:12.266Z,999.3
2018-08-24T08:02:12.276Z,998.3
2018-08-24T08:03:12.287Z,995.97
2018-08-24T08:04:12.321Z,996.32
2018-08-24T08:05:12.325Z,992.16
2018-08-24T08:06:12.281Z,986.61
2018-08-24T08:07:12.255Z,982.38
2018-08-24T08:08:12.289Z,977.07
2018-08-24T08:09:12.282Z,971.49
2018-08-24T08:10:12.297Z,966.6
2018-08-24T08:11:12.272Z,961.09
2018-08-24T08:12:12.284Z,955.71
2018-08-24T08:13:12.280Z,948.67
2018-08-24T08:14:12.282Z,943.15
2018-08-24T08:15:12.265Z,939.17
2018-08-24T08:16:12.296Z,938.93
2018-08-24T08:17:12.320Z,938.31
2018-08-24T08:18:12.125Z,933.01
2018-08-24T08:19:12.318Z,931.1
2018-08-24T08:20:12.297Z,933.58
2018-08-24T08:21:12.311Z,935.21
2018-08-24T08:22:12.312Z,938.11
2018-08-24T08:23:12.341Z,941.61
2018-08-24T08:24:12.295Z,944.64
2018-08-24T08:25:12.295Z,947.83
2018-08-24T08:26:12.324Z,950.7
2018-08-24T08:32:52.930Z,969.89
2018-08-24T08:33:52.895Z,974.18
2018-08-24T08:34:52.899Z,977.77
2018-08-24T08:35:52.914Z,980.92
2018-08-24T08:36:52.906Z,983.63
2018-08-24T08:37:52.912Z,986.22
2018-08-24T08:38:52.899Z,989.3
2018-08-24T08:39:52.914Z,992.46
2018-08-24T08:40:52.910Z,994.42
2018-08-24T08:41:52.919Z,995.91
2018-08-24T08:42:52.936Z,996.68
2018-08-24T08:43:52.917Z,997.45
2018-08-24T08:44:52.961Z,997.88
2018-08-24T08:45:52.968Z,998.72
2018-08-24T08:46:52.918Z,999.06
2018-08-24T08:47:52.941Z,999.41
2018-08-24T08:48:52.929Z,1000.53
2018-08-24T08:49:52.922Z,1001.84
2018-08-24T08:50:52.934Z,1003.59
2018-08-24T08:51:52.935Z,1005.08
2018-08-24T08:52:52.953Z,1006.04
2018-08-24T08:53:52.949Z,1006.57
2018-08-24T08:54:52.942Z,1006.62
2018-08-24T08:55:52.949Z,1006.42
2018-08-24T08:56:52.950Z,1006.65
2018-08-24T08:57:52.954Z,1006.47
2018-08-24T08:58:52.957Z,1006.13
2018-08-24T08:59:52.964Z,1006.19
2018-08-24T09:00:52.959Z,1004.78
2018-08-24T09:01:52.952Z,995.93
2018-08-24T09:02:52.985Z,991.44
2018-08-24T09:03:52.964Z,988.95
2018-08-24T09:04:52.968Z,985.85
2018-08-24T09:05:53.026Z,983.33
2018-08-24T09:06:52.970Z,978.63
2018-08-24T09:07:52.982Z,972.97
2018-08-24T09:08:52.980Z,967.97
2018-08-24T09:09:52.964Z,961.18
2018-08-24T09:10:52.966Z,951.14
2018-08-24T09:11:52.968Z,940.52
2018-08-24T09:12:53.006Z,929.02
2018-08-24T09:13:52.979Z,917.22
2018-08-24T09:14:53.001Z,913
2018-08-24T09:15:52.991Z,906.48
2018-08-24T09:16:52.979Z,904.62
2018-08-24T09:17:52.976Z,905.11
2018-08-24T09:18:52.980Z,906.34
2018-08-24T09:19:53.026Z,909.67
2018-08-24T09:20:52.990Z,914.2
2018-08-24T09:21:52.999Z,918.75
2018-08-24T09:22:52.980Z,922.84
2018-08-24T09:23:53.010Z,926.22
2018-08-24T09:24:53.009Z,929.87
2018-08-24T09:25:52.996Z,933.26
2018-08-24T09:30:22.508Z,939.19
2018-08-24T09:31:22.518Z,932.46
2018-08-24T09:32:22.517Z,924.78
2018-08-24T09:33:22.489Z,915.38
2018-08-24T09:34:22.533Z,909.18
2018-08-24T09:35:22.642Z,910.47
2018-08-24T09:36:22.507Z,909.61
2018-08-24T09:37:22.520Z,909.6
2018-08-24T09:38:22.533Z,909.26
2018-08-24T09:39:22.601Z,909.46
2018-08-24T09:40:22.545Z,910.86
2018-08-24T09:41:22.524Z,912.85
2018-08-24T09:42:22.615Z,915.75
2018-08-24T09:43:22.525Z,919.37
2018-08-24T09:44:22.534Z,923.18
2018-08-24T09:45:22.530Z,926.2
2018-08-24T09:46:22.523Z,927.85
2018-08-24T09:47:22.509Z,928.31
2018-08-24T09:48:22.518Z,927.47
2018-08-24T09:49:22.522Z,920.68
2018-08-24T09:50:22.548Z,915.83
2018-08-24T09:51:22.519Z,914.41
2018-08-24T09:52:22.520Z,913.77
2018-08-24T09:53:22.532Z,915.61
2018-08-24T09:54:22.565Z,916.93
2018-08-24T09:55:22.595Z,917.4
2018-08-24T09:56:22.555Z,916.79
2018-08-24T09:57:22.562Z,917.2
2018-08-24T09:58:22.559Z,917.07
2018-08-24T09:59:22.576Z,916.32
2018-08-24T10:00:22.565Z,911.07
2018-08-24T10:01:22.554Z,900.66
2018-08-24T10:02:22.622Z,891.31
2018-08-24T10:03:22.549Z,890.13
2018-08-24T10:04:22.558Z,891.81
2018-08-24T10:05:22.617Z,892.05
2018-08-24T10:06:22.595Z,887.8
2018-08-24T10:07:22.551Z,885.01
2018-08-24T10:08:22.593Z,884.38
2018-08-24T10:09:22.561Z,878.5
2018-08-24T10:10:22.569Z,878.36
2018-08-24T10:11:22.574Z,877.44
2018-08-24T10:12:22.572Z,875.91
2018-08-24T10:13:22.550Z,879.39
2018-08-24T10:14:22.585Z,883.36
2018-08-24T10:15:22.593Z,886.14
2018-08-24T10:16:22.573Z,889.03
2018-08-24T10:17:22.565Z,892.98
2018-08-24T10:18:22.572Z,895.46
2018-08-24T10:19:22.596Z,897.82
2018-08-24T10:20:22.590Z,900.15
2018-08-24T10:21:22.605Z,902.63
2018-08-24T10:22:22.599Z,905.24
2018-08-24T10:23:22.590Z,907.98
2018-08-24T10:24:22.579Z,910.66
2018-08-24T10:25:22.668Z,912.95
2018-08-24T10:26:22.597Z,915.97
2018-08-24T10:27:22.601Z,918.56
2018-08-24T10:28:22.602Z,918.78
2018-08-24T10:29:22.671Z,915.35
2018-08-24T10:30:22.588Z,912.14
2018-08-24T10:31:22.621Z,906.73
2018-08-24T10:32:22.608Z,899.9
2018-08-24T10:33:22.620Z,894.59
2018-08-24T10:34:22.606Z,888.08
2018-08-24T10:35:22.651Z,880.91
2018-08-24T10:36:22.639Z,873.12
2018-08-24T10:37:22.615Z,867.66
2018-08-24T10:38:22.616Z,861.92
2018-08-24T10:39:22.618Z,857.09
2018-08-24T10:40:22.618Z,852.11
2018-08-24T10:41:22.629Z,847.07
2018-08-24T10:42:22.649Z,842.51
2018-08-24T10:43:22.663Z,838.14
2018-08-24T10:44:22.639Z,833.74
2018-08-24T10:45:22.630Z,831.34
2018-08-24T10:46:22.632Z,830
2018-08-24T10:47:22.688Z,828.16
2018-08-24T10:48:22.634Z,821.47
2018-08-24T10:49:22.656Z,814.44
2018-08-24T10:50:22.664Z,810.89
2018-08-24T10:51:22.661Z,808.51
2018-08-24T10:52:22.639Z,802.74
2018-08-24T10:53:23.152Z,800.68
2018-08-24T10:54:22.637Z,806.8
2018-08-24T10:55:22.650Z,809.82
2018-08-24T10:56:22.646Z,810.5
2018-08-24T10:57:22.662Z,811.99
2018-08-24T10:58:22.649Z,810.37
2018-08-24T11:02:51.882Z,794.56
2018-08-24T11:03:51.860Z,789.66
2018-08-24T11:04:51.852Z,786.85
2018-08-24T11:05:51.860Z,778.88
2018-08-24T11:06:51.885Z,772.45
2018-08-24T11:07:51.972Z,767.36
2018-08-24T11:08:51.875Z,765.36
2018-08-24T11:09:51.868Z,765.11
2018-08-24T11:10:51.893Z,772.53
2018-08-24T11:11:51.875Z,776.6
2018-08-24T11:12:51.876Z,778.61
2018-08-24T11:13:51.912Z,786.87
2018-08-24T11:14:51.888Z,786.26
2018-08-24T11:15:51.884Z,785.68
2018-08-24T11:16:51.962Z,786.65
2018-08-24T11:17:51.903Z,787.54
2018-08-24T11:18:51.895Z,795.17
2018-08-24T11:19:51.926Z,796.13
2018-08-24T11:20:51.887Z,789.6
2018-08-24T11:21:51.969Z,784.35
2018-08-24T11:22:51.912Z,781.65
2018-08-24T11:23:51.939Z,785.52
2018-08-24T11:24:51.925Z,789.59
2018-08-24T11:25:51.899Z,795.78
2018-08-24T11:26:51.956Z,797.71
2018-08-24T11:27:51.912Z,787.14
2018-08-24T11:28:51.901Z,778.27
2018-08-24T11:33:22.179Z,766.6
2018-08-24T11:34:22.180Z,769.32
2018-08-24T11:35:22.157Z,772.33
2018-08-24T11:36:22.161Z,776.88
2018-08-24T11:37:22.167Z,781.95
2018-08-24T11:38:22.155Z,780.09
2018-08-24T11:39:22.157Z,780.83
2018-08-24T11:40:22.163Z,778.62
2018-08-24T11:41:22.158Z,775.08
2018-08-24T11:42:22.162Z,775.68
2018-08-24T11:43:22.176Z,781.91
2018-08-24T11:44:22.173Z,786.4
2018-08-24T11:45:22.193Z,782.68
2018-08-24T11:46:22.186Z,788.62
2018-08-24T11:47:22.193Z,792.22
2018-08-24T11:48:22.179Z,797.92
2018-08-24T11:49:22.174Z,805.73
2018-08-24T11:50:22.197Z,813.68
2018-08-24T11:51:22.186Z,820.83
2018-08-24T11:52:22.173Z,827.88
2018-08-24T11:53:22.178Z,834.18
2018-08-24T11:54:22.274Z,839.46
2018-08-24T11:55:22.221Z,844.37
2018-08-24T11:56:22.187Z,848.3
2018-08-24T11:57:22.189Z,849.24
2018-08-24T11:58:22.229Z,848.08
2018-08-24T11:59:22.225Z,839.22
2018-08-24T12:00:22.215Z,837.03
2018-08-24T12:01:22.223Z,835.75
2018-08-24T12:02:22.210Z,829.07
2018-08-24T12:03:22.195Z,821.44
2018-08-24T12:04:22.211Z,817.56
2018-08-24T12:05:22.215Z,822.53
2018-08-24T12:06:22.199Z,825.53
2018-08-24T12:07:22.231Z,828.24
2018-08-24T12:08:22.345Z,833.42
2018-08-24T12:09:22.211Z,838.06
2018-08-24T12:10:22.242Z,840.5
2018-08-24T12:11:22.224Z,843.35
2018-08-24T12:12:22.313Z,844.82
2018-08-24T12:13:22.223Z,843.9
2018-08-24T12:14:22.262Z,845.3
2018-08-24T12:15:22.270Z,840.94
2018-08-24T12:16:22.221Z,835.26
2018-08-24T12:17:22.226Z,830.81
2018-08-24T12:18:22.324Z,825.57
2018-08-24T12:19:22.228Z,825.21
2018-08-24T12:20:22.259Z,824.49
2018-08-24T12:21:22.381Z,829.87
2018-08-24T12:22:22.226Z,835.85
2018-08-24T12:23:22.233Z,837.66
2018-08-24T12:24:22.307Z,836.18
2018-08-24T12:25:22.249Z,837.02
2018-08-24T12:26:22.241Z,841.84
2018-08-24T12:27:22.282Z,845.31
2018-08-24T12:28:22.253Z,850.37
2018-08-24T12:29:22.280Z,854.05
2018-08-24T12:30:22.252Z,853.65
2018-08-24T12:31:22.296Z,855.54
2018-08-24T12:32:22.271Z,856.42
2018-08-24T12:33:22.264Z,858.95
2018-08-24T12:34:22.280Z,861.6
2018-08-24T12:35:22.279Z,864.12
2018-08-24T12:36:22.280Z,864.5
2018-08-24T12:37:22.263Z,870.92
2018-08-24T12:38:22.265Z,877.9
2018-08-24T12:39:22.274Z,883.37
2018-08-24T12:40:22.300Z,888.95
2018-08-24T12:41:22.339Z,894.38
2018-08-24T12:42:22.295Z,900
2018-08-24T12:43:22.330Z,904.56
2018-08-24T12:44:22.273Z,909.49
2018-08-24T12:45:22.295Z,914.44
2018-08-24T12:46:22.272Z,919
2018-08-24T12:47:22.287Z,922.25
2018-08-24T12:48:22.319Z,925.32
2018-08-24T12:49:22.349Z,927.6
2018-08-24T12:50:22.314Z,930.27
2018-08-24T12:51:22.287Z,930.49
2018-08-24T12:52:22.278Z,925.19
2018-08-24T12:53:22.319Z,921.08
2018-08-24T12:54:22.325Z,922.16
2018-08-24T12:55:22.331Z,919.78
2018-08-24T12:56:22.329Z,918.44
2018-08-24T12:57:22.313Z,919.67
2018-08-24T12:58:22.324Z,915.89
2018-08-24T12:59:22.320Z,914.56
2018-08-24T13:00:22.360Z,917.01
2018-08-24T13:01:22.302Z,917.74
2018-08-24T13:02:22.340Z,920.67
2018-08-24T13:03:22.309Z,924.41
2018-08-24T13:04:22.323Z,927.41
2018-08-24T13:05:22.345Z,930.15
2018-08-24T13:06:22.308Z,933.32
2018-08-24T13:07:22.334Z,936.18
2018-08-24T13:08:22.319Z,939.6
2018-08-24T13:09:22.327Z,942.94